Cheyenne — WDE9553 — position and weather

sailwx.info

Track history (hours):
 
Tides and Currents Weather Stations Pressure Air Temp Water Temp Dewpoint Dewpoint Depression Visibility Wind Speed Wind Dir Waves Ship Positions

Cheyenne

Owner: DMC MARINE, LLC, HILLSIDE, NJ. More information available from US FCC via Universal Licensing System and Coast Guard Vessel Documentation Center.

Last reported at 2014-Nov-26 15:20 UTC. Time now 2014-Nov-26 18:42 UTC.
Position N 40°45' W 073°57'.

Length 29 m; draft 4 m.

Type: Towing. MMSI: 367418570.

Date/timePositionNaut miles runAvg speedWind from/ knotsBaromVisibWave heightAir tempDewpointWater temp
2014-Nov-26 15:20N 40°45' W 073°57'6 8.2
2014-Nov-26 14:33N 40°40' W 074°03'2 1.7
2014-Nov-26 13:33N 40°41' W 074°05'0 0.0
2014-Nov-26 12:33N 40°41' W 074°05'0 0.0
2014-Nov-26 11:33N 40°41' W 074°05'0 0.0
2014-Nov-26 10:31N 40°41' W 074°05'0 0.0
2014-Nov-26 09:33N 40°41' W 074°05'0 0.0
2014-Nov-26 08:33N 40°41' W 074°05'0 0.0
2014-Nov-26 07:33N 40°41' W 074°05'0 0.0
2014-Nov-26 06:32N 40°41' W 074°05'0 0.0
2014-Nov-26 05:33N 40°41' W 074°05'0 0.0
2014-Nov-26 04:33N 40°41' W 074°05'1 1.0
2014-Nov-26 03:33N 40°41' W 074°04'3 2.8
2014-Nov-26 02:33N 40°40' W 073°60'4 3.6
2014-Nov-26 01:33N 40°41' W 074°05'0 0.1
2014-Nov-26 00:33N 40°41' W 074°05'0 0.0
2014-Nov-25 23:33N 40°41' W 074°05'0 0.0
2014-Nov-25 22:33N 40°41' W 074°05'0 0.0
2014-Nov-25 21:33N 40°41' W 074°05'0 0.1
2014-Nov-25 20:33N 40°41' W 074°05'5 5.4
2014-Nov-25 19:33N 40°43' W 073°58'1 0.1
2014-Nov-25 14:33N 40°44' W 073°58'6 5.6
2014-Nov-25 13:33N 40°41' W 074°04'0 0.2
2014-Nov-25 12:32N 40°41' W 074°05'0 0.0
2014-Nov-25 11:32N 40°41' W 074°05'0 0.0
2014-Nov-25 10:33N 40°41' W 074°05'0 0.0
2014-Nov-25 09:33N 40°41' W 074°05'0 0.0
2014-Nov-25 08:33N 40°41' W 074°05'0 0.0
2014-Nov-25 07:32N 40°41' W 074°05'0 0.0
2014-Nov-25 06:33N 40°41' W 074°05'0 0.0
2014-Nov-25 05:33N 40°41' W 074°05'3 3.4
2014-Nov-25 04:33N 40°42' W 074°00'4 3.2
2014-Nov-25 03:27N 40°44' W 073°57'2 2.5
2014-Nov-25 02:33N 40°43' W 073°59'5 4.5
2014-Nov-25 01:32N 40°41' W 074°04'3 3.3
2014-Nov-25 00:33N 40°42' W 074°00'4 3.0
2014-Nov-24 23:23N 40°44' W 073°57'3 3.4
2014-Nov-24 22:33N 40°42' W 073°59'4 4.0
2014-Nov-24 21:33N 40°41' W 074°05'0 0.0
2014-Nov-24 20:30N 40°41' W 074°05'0 0.0
2014-Nov-24 19:33N 40°41' W 074°05'0 0.0
2014-Nov-24 18:33N 40°41' W 074°05'0 0.0
2014-Nov-24 17:33N 40°41' W 074°05'0 0.0
2014-Nov-24 16:32N 40°41' W 074°05'0 0.0
2014-Nov-24 15:33N 40°41' W 074°05'0 0.2
2014-Nov-24 14:33N 40°41' W 074°04'0 0.2
2014-Nov-24 13:27N 40°41' W 074°05'0 0.0
2014-Nov-24 12:20N 40°41' W 074°05'0 0.0
2014-Nov-24 11:33N 40°41' W 074°05'0 0.0
2014-Nov-24 10:33N 40°41' W 074°05'0 0.0
2014-Nov-24 09:33N 40°41' W 074°05'0 0.0
2014-Nov-24 06:22N 40°41' W 074°05'0 0.0
2014-Nov-24 04:33N 40°41' W 074°05'1 0.8
2014-Nov-24 03:33N 40°41' W 074°04'4 3.9
2014-Nov-24 02:33N 40°44' W 074°01'8 3.6
2014-Nov-24 00:18N 40°51' W 073°57'5 0.1
2014-Nov-22 09:32N 40°47' W 073°60'5 5.4
2014-Nov-22 08:33N 40°42' W 074°02'2 2.2
2014-Nov-22 07:33N 40°41' W 074°05'0 0.0
2014-Nov-22 06:28N 40°41' W 074°05'0 0.0
2014-Nov-22 05:33N 40°41' W 074°05'0 0.0
2014-Nov-22 04:33N 40°41' W 074°05'0 0.0
2014-Nov-22 03:33N 40°41' W 074°05'0 0.0
2014-Nov-22 02:33N 40°41' W 074°05'2 2.1
2014-Nov-22 01:33N 40°42' W 074°02'3 3.4
2014-Nov-22 00:33N 40°44' W 073°58'1 1.2
2014-Nov-21 23:33N 40°44' W 073°57'2 2.5
2014-Nov-21 22:33N 40°42' W 073°59'4 4.4
2014-Nov-21 21:33N 40°41' W 074°05'0 0.0
2014-Nov-21 20:33N 40°41' W 074°05'0 0.1
2014-Nov-21 19:33N 40°41' W 074°05'0 0.0
2014-Nov-21 18:33N 40°41' W 074°05'0 0.0
2014-Nov-21 17:33N 40°41' W 074°05'0 0.0
2014-Nov-21 16:33N 40°41' W 074°05'0 0.0
2014-Nov-21 15:33N 40°41' W 074°05'0 0.0
2014-Nov-21 14:33N 40°41' W 074°05'0 0.0
2014-Nov-21 13:33N 40°41' W 074°05'0 0.0
2014-Nov-21 12:33N 40°41' W 074°05'5 4.1
2014-Nov-21 11:27N 40°38' W 074°09'1 1.3
2014-Nov-21 10:33N 40°39' W 074°08'4 3.5
2014-Nov-21 09:33N 40°41' W 074°05'0 0.0
2014-Nov-21 08:29N 40°41' W 074°05'0 0.0
2014-Nov-21 07:33N 40°41' W 074°05'0 0.0
2014-Nov-21 06:32N 40°41' W 074°05'0 0.0
2014-Nov-21 05:29N 40°41' W 074°05'0 0.0
2014-Nov-21 04:14N 40°41' W 074°05'0 0.0
2014-Nov-21 03:33N 40°41' W 074°05'0 0.1
2014-Nov-21 02:33N 40°41' W 074°04'3 2.9
2014-Nov-21 01:33N 40°41' W 074°01'4 3.8
2014-Nov-21 00:33N 40°44' W 073°58'1 0.4
2014-Nov-20 22:33N 40°44' W 073°57'0 0.0
2014-Nov-20 21:33N 40°44' W 073°57'0 0.1
2014-Nov-20 20:25N 40°44' W 073°57'5 5.8
2014-Nov-20 19:33N 40°41' W 074°02'2 2.2
2014-Nov-20 18:32N 40°41' W 074°05'0 0.0
2014-Nov-20 17:33N 40°41' W 074°05'0 0.0
2014-Nov-20 16:31N 40°41' W 074°05'0 0.1
2014-Nov-20 15:25N 40°41' W 074°05'0 0.0
2014-Nov-20 14:08N 40°41' W 074°05'0 0.0
2014-Nov-20 13:05N 40°41' W 074°05'0 0.0
2014-Nov-20 12:33N 40°41' W 074°05'0 0.0
2014-Nov-20 11:33N 40°41' W 074°05'0 0.0
2014-Nov-20 10:33N 40°41' W 074°05'0 0.0
2014-Nov-20 09:33N 40°41' W 074°05'0 0.0
2014-Nov-20 08:31N 40°41' W 074°05'0 0.0
2014-Nov-20 07:08N 40°41' W 074°05'0 0.0
2014-Nov-20 06:31N 40°41' W 074°05'0 0.0
2014-Nov-20 05:29N 40°41' W 074°05'0 0.0
2014-Nov-20 04:24N 40°41' W 074°05'0 0.0
2014-Nov-20 03:33N 40°41' W 074°05'0 0.0
2014-Nov-20 02:33N 40°41' W 074°05'0 0.0
2014-Nov-20 01:32N 40°41' W 074°05'0 0.0
2014-Nov-19 23:33N 40°41' W 074°05'0 0.0
2014-Nov-19 20:33N 40°41' W 074°05'0 0.0
2014-Nov-19 19:33N 40°41' W 074°05'0 0.0
2014-Nov-19 18:33N 40°41' W 074°05'0 0.0
2014-Nov-19 17:33N 40°41' W 074°05'0 0.0
2014-Nov-19 15:31N 40°41' W 074°05'0 0.0
2014-Nov-19 14:33N 40°41' W 074°05'0 0.0
2014-Nov-19 13:33N 40°41' W 074°05'0 0.0
2014-Nov-19 12:33N 40°41' W 074°05'0 0.0
2014-Nov-19 11:33N 40°41' W 074°05'0 0.0
2014-Nov-19 10:11N 40°41' W 074°05'0 0.0
2014-Nov-19 07:30N 40°41' W 074°05'0 0.4
2014-Nov-19 06:33N 40°41' W 074°04'5 0.1
2014-Nov-17 04:33N 40°45' W 074°01'8 7.8
2014-Nov-17 03:30N 40°39' W 074°07'3 1.0
2014-Nov-17 00:24N 40°39' W 074°11'1 1.7
2014-Nov-16 23:30N 40°39' W 074°09'4 3.8
2014-Nov-16 22:33N 40°39' W 074°05'4 4.0
2014-Nov-16 21:33N 40°43' W 074°02'4 3.9
2014-Nov-16 20:33N 40°46' W 074°00'  
Track history (hours):
 
Tides and Currents Weather Stations Pressure Air Temp Water Temp Dewpoint Dewpoint Depression Visibility Wind Speed Wind Dir Waves Ship Positions

Cheyenne

Owner: DMC MARINE, LLC, HILLSIDE, NJ. More information available from US FCC via Universal Licensing System and Coast Guard Vessel Documentation Center.

Last reported at 2014-Nov-26 15:20 UTC. Time now 2014-Nov-26 18:42 UTC.
Position N 40°45' W 073°57'.

Length 29 m; draft 4 m.

Type: Towing. MMSI: 367418570.

Date/timePositionNaut miles runAvg speedWind from/ knotsBaromVisibWave heightAir tempDewpointWater temp
2014-Nov-26 15:20N 40°45' W 073°57'6 8.2
2014-Nov-26 14:33N 40°40' W 074°03'2 1.7
2014-Nov-26 13:33N 40°41' W 074°05'0 0.0
2014-Nov-26 12:33N 40°41' W 074°05'0 0.0
2014-Nov-26 11:33N 40°41' W 074°05'0 0.0
2014-Nov-26 10:31N 40°41' W 074°05'0 0.0
2014-Nov-26 09:33N 40°41' W 074°05'0 0.0
2014-Nov-26 08:33N 40°41' W 074°05'0 0.0
2014-Nov-26 07:33N 40°41' W 074°05'0 0.0
2014-Nov-26 06:32N 40°41' W 074°05'0 0.0
2014-Nov-26 05:33N 40°41' W 074°05'0 0.0
2014-Nov-26 04:33N 40°41' W 074°05'1 1.0
2014-Nov-26 03:33N 40°41' W 074°04'3 2.8
2014-Nov-26 02:33N 40°40' W 073°60'4 3.6
2014-Nov-26 01:33N 40°41' W 074°05'0 0.1
2014-Nov-26 00:33N 40°41' W 074°05'0 0.0
2014-Nov-25 23:33N 40°41' W 074°05'0 0.0
2014-Nov-25 22:33N 40°41' W 074°05'0 0.0
2014-Nov-25 21:33N 40°41' W 074°05'0 0.1
2014-Nov-25 20:33N 40°41' W 074°05'5 5.4
2014-Nov-25 19:33N 40°43' W 073°58'1 0.1
2014-Nov-25 14:33N 40°44' W 073°58'6 5.6
2014-Nov-25 13:33N 40°41' W 074°04'0 0.2
2014-Nov-25 12:32N 40°41' W 074°05'0 0.0
2014-Nov-25 11:32N 40°41' W 074°05'0 0.0
2014-Nov-25 10:33N 40°41' W 074°05'0 0.0
2014-Nov-25 09:33N 40°41' W 074°05'0 0.0
2014-Nov-25 08:33N 40°41' W 074°05'0 0.0
2014-Nov-25 07:32N 40°41' W 074°05'0 0.0
2014-Nov-25 06:33N 40°41' W 074°05'0 0.0
2014-Nov-25 05:33N 40°41' W 074°05'3 3.4
2014-Nov-25 04:33N 40°42' W 074°00'4 3.2
2014-Nov-25 03:27N 40°44' W 073°57'2 2.5
2014-Nov-25 02:33N 40°43' W 073°59'5 4.5
2014-Nov-25 01:32N 40°41' W 074°04'3 3.3
2014-Nov-25 00:33N 40°42' W 074°00'4 3.0
2014-Nov-24 23:23N 40°44' W 073°57'3 3.4
2014-Nov-24 22:33N 40°42' W 073°59'4 4.0
2014-Nov-24 21:33N 40°41' W 074°05'0 0.0
2014-Nov-24 20:30N 40°41' W 074°05'0 0.0
2014-Nov-24 19:33N 40°41' W 074°05'0 0.0
2014-Nov-24 18:33N 40°41' W 074°05'0 0.0
2014-Nov-24 17:33N 40°41' W 074°05'0 0.0
2014-Nov-24 16:32N 40°41' W 074°05'0 0.0
2014-Nov-24 15:33N 40°41' W 074°05'0 0.2
2014-Nov-24 14:33N 40°41' W 074°04'0 0.2
2014-Nov-24 13:27N 40°41' W 074°05'0 0.0
2014-Nov-24 12:20N 40°41' W 074°05'0 0.0
2014-Nov-24 11:33N 40°41' W 074°05'0 0.0
2014-Nov-24 10:33N 40°41' W 074°05'0 0.0
2014-Nov-24 09:33N 40°41' W 074°05'0 0.0
2014-Nov-24 06:22N 40°41' W 074°05'0 0.0
2014-Nov-24 04:33N 40°41' W 074°05'1 0.8
2014-Nov-24 03:33N 40°41' W 074°04'4 3.9
2014-Nov-24 02:33N 40°44' W 074°01'8 3.6
2014-Nov-24 00:18N 40°51' W 073°57'5 0.1
2014-Nov-22 09:32N 40°47' W 073°60'5 5.4
2014-Nov-22 08:33N 40°42' W 074°02'2 2.2
2014-Nov-22 07:33N 40°41' W 074°05'0 0.0
2014-Nov-22 06:28N 40°41' W 074°05'0 0.0
2014-Nov-22 05:33N 40°41' W 074°05'0 0.0
2014-Nov-22 04:33N 40°41' W 074°05'0 0.0
2014-Nov-22 03:33N 40°41' W 074°05'0 0.0
2014-Nov-22 02:33N 40°41' W 074°05'2 2.1
2014-Nov-22 01:33N 40°42' W 074°02'3 3.4
2014-Nov-22 00:33N 40°44' W 073°58'1 1.2
2014-Nov-21 23:33N 40°44' W 073°57'2 2.5
2014-Nov-21 22:33N 40°42' W 073°59'4 4.4
2014-Nov-21 21:33N 40°41' W 074°05'0 0.0
2014-Nov-21 20:33N 40°41' W 074°05'0 0.1
2014-Nov-21 19:33N 40°41' W 074°05'0 0.0
2014-Nov-21 18:33N 40°41' W 074°05'0 0.0
2014-Nov-21 17:33N 40°41' W 074°05'0 0.0
2014-Nov-21 16:33N 40°41' W 074°05'0 0.0
2014-Nov-21 15:33N 40°41' W 074°05'0 0.0
2014-Nov-21 14:33N 40°41' W 074°05'0 0.0
2014-Nov-21 13:33N 40°41' W 074°05'0 0.0
2014-Nov-21 12:33N 40°41' W 074°05'5 4.1
2014-Nov-21 11:27N 40°38' W 074°09'1 1.3
2014-Nov-21 10:33N 40°39' W 074°08'4 3.5
2014-Nov-21 09:33N 40°41' W 074°05'0 0.0
2014-Nov-21 08:29N 40°41' W 074°05'0 0.0
2014-Nov-21 07:33N 40°41' W 074°05'0 0.0
2014-Nov-21 06:32N 40°41' W 074°05'0 0.0
2014-Nov-21 05:29N 40°41' W 074°05'0 0.0
2014-Nov-21 04:14N 40°41' W 074°05'0 0.0
2014-Nov-21 03:33N 40°41' W 074°05'0 0.1
2014-Nov-21 02:33N 40°41' W 074°04'3 2.9
2014-Nov-21 01:33N 40°41' W 074°01'4 3.8
2014-Nov-21 00:33N 40°44' W 073°58'1 0.4
2014-Nov-20 22:33N 40°44' W 073°57'0 0.0
2014-Nov-20 21:33N 40°44' W 073°57'0 0.1
2014-Nov-20 20:25N 40°44' W 073°57'5 5.8
2014-Nov-20 19:33N 40°41' W 074°02'2 2.2
2014-Nov-20 18:32N 40°41' W 074°05'0 0.0
2014-Nov-20 17:33N 40°41' W 074°05'0 0.0
2014-Nov-20 16:31N 40°41' W 074°05'0 0.1
2014-Nov-20 15:25N 40°41' W 074°05'0 0.0
2014-Nov-20 14:08N 40°41' W 074°05'0 0.0
2014-Nov-20 13:05N 40°41' W 074°05'0 0.0
2014-Nov-20 12:33N 40°41' W 074°05'0 0.0
2014-Nov-20 11:33N 40°41' W 074°05'0 0.0
2014-Nov-20 10:33N 40°41' W 074°05'0 0.0
2014-Nov-20 09:33N 40°41' W 074°05'0 0.0
2014-Nov-20 08:31N 40°41' W 074°05'0 0.0
2014-Nov-20 07:08N 40°41' W 074°05'0 0.0
2014-Nov-20 06:31N 40°41' W 074°05'0 0.0
2014-Nov-20 05:29N 40°41' W 074°05'0 0.0
2014-Nov-20 04:24N 40°41' W 074°05'0 0.0
2014-Nov-20 03:33N 40°41' W 074°05'0 0.0
2014-Nov-20 02:33N 40°41' W 074°05'0 0.0
2014-Nov-20 01:32N 40°41' W 074°05'0 0.0
2014-Nov-19 23:33N 40°41' W 074°05'0 0.0
2014-Nov-19 20:33N 40°41' W 074°05'0 0.0
2014-Nov-19 19:33N 40°41' W 074°05'0 0.0
2014-Nov-19 18:33N 40°41' W 074°05'0 0.0
2014-Nov-19 17:33N 40°41' W 074°05'0 0.0
2014-Nov-19 15:31N 40°41' W 074°05'0 0.0
2014-Nov-19 14:33N 40°41' W 074°05'0 0.0
2014-Nov-19 13:33N 40°41' W 074°05'0 0.0
2014-Nov-19 12:33N 40°41' W 074°05'0 0.0
2014-Nov-19 11:33N 40°41' W 074°05'0 0.0
2014-Nov-19 10:11N 40°41' W 074°05'0 0.0
2014-Nov-19 07:30N 40°41' W 074°05'0 0.4
2014-Nov-19 06:33N 40°41' W 074°04'5 0.1
2014-Nov-17 04:33N 40°45' W 074°01'8 7.8
2014-Nov-17 03:30N 40°39' W 074°07'3 1.0
2014-Nov-17 00:24N 40°39' W 074°11'1 1.7
2014-Nov-16 23:30N 40°39' W 074°09'4 3.8
2014-Nov-16 22:33N 40°39' W 074°05'4 4.0
2014-Nov-16 21:33N 40°43' W 074°02'4 3.9
2014-Nov-16 20:33N 40°46' W 074°00'  

Dump ship's entire track history